Time;durP1;ratioP1;P1;durP2;ratioP2;P2;SDS_P1;SDS_P2;PMS_P1;PMS_P2;Temp;Humidity;BMP_temperature;BMP_pressure;BME280_temperature;BME280_humidity;BME280_pressure;Samples;Min_cycle;Max_cycle;Signal;HPM_P1;HPM_P2
2023/07/04 00:01:24;;;;;;;16.77;8.20;;;;;;;20.85;nan;316.75;5034179;28;20172;-60
2023/07/04 00:03:53;;;;;;;18.67;8.60;;;;;;;20.84;nan;-1641.03;5034686;28;20678;-61
2023/07/04 00:06:20;;;;;;;15.85;8.70;;;;;;;21.13;nan;-2617.22;5034059;28;20218;-61
2023/07/04 00:08:46;;;;;;;16.75;8.15;;;;;;;21.11;nan;-2291.13;5034101;28;20210;-60
2023/07/04 00:11:12;;;;;;;18.20;8.93;;;;;;;20.83;nan;-2619.53;5034004;28;20552;-60
2023/07/04 00:13:39;;;;;;;18.08;9.15;;;;;;;20.84;nan;-3597.56;5034173;28;20690;-61
2023/07/04 00:16:06;;;;;;;15.75;8.32;;;;;;;20.81;nan;-3271.78;5034031;28;20528;-61
2023/07/04 00:18:32;;;;;;;17.00;8.77;;;;;;;20.40;nan;-3274.41;5033803;28;20236;-60
2023/07/04 00:21:03;;;;;;;18.38;9.05;;;;;;;21.06;nan;-3270.13;5034529;28;20171;-61
2023/07/04 00:23:34;;;;;;;16.27;8.70;;;;;;;20.93;nan;-4575.03;5033948;28;20203;-60
2023/07/04 00:26:02;;;;;;;15.98;8.75;;;;;;;21.03;nan;-4248.53;5033798;28;20199;-61
2023/07/04 00:28:28;;;;;;;16.55;8.70;;;;;;;20.37;nan;-5228.69;5033744;28;20186;-61
2023/07/04 00:30:54;;;;;;;17.17;8.65;;;;;;;20.95;nan;-6204.28;5033710;28;20164;-59
2023/07/04 00:33:22;;;;;;;15.68;8.52;;;;;;;20.64;nan;-7181.56;5033156;28;20194;-60
2023/07/04 00:35:48;;;;;;;18.33;9.40;;;;;;;20.71;nan;-7832.63;5033783;28;20179;-60
2023/07/04 00:38:14;;;;;;;16.35;8.90;;;;;;;20.78;nan;-8483.69;5033802;28;20550;-60
2023/07/04 00:40:39;;;;;;;15.40;8.80;;;;;;;20.69;nan;-8808.94;5033710;28;20182;-61
2023/07/04 00:43:08;;;;;;;14.98;8.75;;;;;;;20.81;nan;-8483.75;5033587;28;20188;-60
2023/07/04 00:45:42;;;;;;;17.95;9.10;;;;;;;20.66;nan;-9134.22;5033007;28;20286;-60
2023/07/04 00:48:10;;;;;;;14.10;8.32;;;;;;;14.29;nan;-9758.06;5033949;28;20261;-60
2023/07/04 00:50:43;;;;;;;15.55;8.20;;;;;;;20.72;nan;-10435.66;5033528;28;20185;-60
2023/07/04 00:53:11;;;;;;;14.70;8.38;;;;;;;20.51;nan;-9784.25;5033516;28;20172;-60
2023/07/04 00:55:41;;;;;;;15.30;8.57;;;;;;;20.67;nan;-10110.16;5033103;28;20309;-60
2023/07/04 00:58:07;;;;;;;16.98;8.43;;;;;;;20.68;nan;-9784.94;5032891;28;20191;-60
2023/07/04 01:00:37;;;;;;;15.40;8.35;;;;;;;20.27;nan;-10108.34;5033001;28;20224;-60
2023/07/04 01:03:10;;;;;;;14.90;8.43;;;;;;;20.48;nan;-10109.28;5032995;28;20223;-61
2023/07/04 01:05:39;;;;;;;15.75;8.60;;;;;;;20.76;nan;-10761.09;5033337;28;20662;-60
2023/07/04 01:08:11;;;;;;;16.13;8.43;;;;;;;20.77;nan;-10435.91;5033194;28;20176;-60
2023/07/04 01:10:42;;;;;;;13.93;7.97;;;;;;;20.48;nan;-10434.44;5032718;28;20615;-60
2023/07/04 01:13:29;;;;;;;13.98;8.63;;;;;;;20.71;nan;-10760.81;5032962;28;20669;-60
2023/07/04 01:15:54;;;;;;;13.85;8.23;;;;;;;20.57;nan;-11085.19;5026236;28;20612;-61
2023/07/04 01:18:23;;;;;;;14.52;8.15;;;;;;;20.58;nan;-9784.53;5032851;28;20176;-61
2023/07/04 01:20:50;;;;;;;13.23;7.78;;;;;;;20.91;nan;-6855.84;5032477;28;20199;-60
2023/07/04 01:23:33;;;;;;;13.90;7.45;;;;;;;21.10;nan;-2617.50;5032554;28;20225;-61
2023/07/04 01:26:26;;;;;;;15.20;7.93;;;;;;;21.05;nan;-2944.03;5033115;28;20679;-60
2023/07/04 01:28:54;;;;;;;12.35;7.47;;;;;;;20.99;nan;-2292.16;5032622;28;20186;-60
2023/07/04 01:31:21;;;;;;;14.77;8.00;;;;;;;20.88;nan;-3597.34;5032681;28;20183;-60
2023/07/04 01:33:48;;;;;;;14.05;7.53;;;;;;;20.83;nan;-2945.63;5032883;28;20175;-60
2023/07/04 01:36:16;;;;;;;14.52;8.13;;;;;;;20.86;nan;-2945.41;5032452;28;20179;-60
2023/07/04 01:38:42;;;;;;;14.25;7.50;;;;;;;20.94;nan;317.94;5032531;28;20171;-60
2023/07/04 01:41:08;;;;;;;12.85;7.43;;;;;;;20.85;nan;-335.97;5031275;28;20187;-60
2023/07/04 01:43:33;;;;;;;12.20;7.40;;;;;;;20.91;nan;-661.63;5031923;28;20171;-60
2023/07/04 01:46:01;;;;;;;14.25;7.75;;;;;;;20.83;nan;-662.44;5031071;28;20282;-61
2023/07/04 01:48:26;;;;;;;16.27;7.10;;;;;;;20.52;nan;-991.88;5032328;28;20194;-60
2023/07/04 01:50:52;;;;;;;12.40;7.47;;;;;;;20.70;nan;-1968.38;5031970;28;20176;-59
2023/07/04 01:53:17;;;;;;;13.10;6.97;;;;;;;20.40;nan;-2948.59;5031927;28;20172;-59
2023/07/04 01:55:43;;;;;;;14.52;7.88;;;;;;;20.38;nan;-3600.31;5031760;28;20616;-61
2023/07/04 01:58:08;;;;;;;12.80;7.07;;;;;;;20.58;nan;-4902.28;5031826;28;20168;-60
2023/07/04 02:00:33;;;;;;;11.38;7.13;;;;;;;20.61;nan;-4902.16;5031645;28;20628;-60
2023/07/04 02:02:59;;;;;;;11.85;7.28;;;;;;;20.31;nan;-3600.75;5031679;28;20580;-59
2023/07/04 02:05:26;;;;;;;11.70;6.85;;;;;;;20.47;nan;-3925.53;5031771;28;20281;-61
2023/07/04 02:07:52;;;;;;;13.90;7.93;;;;;;;20.66;nan;-4901.97;5031543;28;20560;-60
2023/07/04 02:10:17;;;;;;;12.70;7.60;;;;;;;20.54;nan;-6530.56;5030460;28;20179;-59
2023/07/04 02:12:43;;;;;;;13.93;7.57;;;;;;;17.42;nan;-8153.19;5032013;28;20179;-59
2023/07/04 02:15:09;;;;;;;12.88;7.18;;;;;;;20.31;nan;-6530.84;5031983;28;20281;-59
2023/07/04 02:17:34;;;;;;;10.63;6.97;;;;;;;17.67;nan;-3940.41;5032264;28;20179;-60
2023/07/04 02:19:59;;;;;;;12.02;7.07;;;;;;;20.19;nan;-2950.06;5031716;28;20179;-60
2023/07/04 02:22:25;;;;;;;12.73;7.15;;;;;;;20.37;nan;-3600.38;5031959;28;20265;-61
2023/07/04 02:24:50;;;;;;;13.52;6.78;;;;;;;20.59;nan;-3924.88;5031457;28;20186;-60
2023/07/04 02:27:16;;;;;;;11.48;6.93;;;;;;;20.24;nan;-6530.91;5031540;28;20199;-60
2023/07/04 02:29:41;;;;;;;10.65;6.55;;;;;;;20.48;nan;-6205.09;5031283;28;20557;-61
2023/07/04 02:32:07;;;;;;;13.38;7.07;;;;;;;20.47;nan;-4902.72;5031905;28;20188;-59
2023/07/04 02:34:32;;;;;;;11.90;6.82;;;;;;;20.50;nan;-5228.28;5047019;28;20673;-60
2023/07/04 02:36:57;;;;;;;13.85;7.72;;;;;;;20.39;nan;-6856.19;5031269;28;20572;-60
2023/07/04 02:39:27;;;;;;;12.68;7.38;;;;;;;20.14;nan;-6531.03;5031595;28;20175;-60
2023/07/04 02:41:53;;;;;;;12.00;7.32;;;;;;;20.63;nan;-4902.09;5031490;28;20180;-61
2023/07/04 02:44:19;;;;;;;14.93;7.40;;;;;;;20.17;nan;-5229.34;5031226;28;20171;-61
2023/07/04 02:46:44;;;;;;;12.35;6.90;;;;;;;20.20;nan;-7181.63;5031778;28;20275;-60
2023/07/04 02:49:09;;;;;;;12.30;7.22;;;;;;;19.95;nan;-7831.94;5031280;28;20207;-60
2023/07/04 02:51:35;;;;;;;12.65;7.20;;;;;;;19.78;nan;-8481.75;5031576;28;20202;-60
2023/07/04 02:54:00;;;;;;;12.25;7.00;;;;;;;20.21;nan;-8157.41;5031553;28;20168;-61
2023/07/04 02:56:26;;;;;;;10.65;6.80;;;;;;;19.96;nan;-7181.66;5033696;28;20176;-60
2023/07/04 02:58:51;;;;;;;11.68;6.65;;;;;;;20.31;nan;-5879.94;5035247;28;20175;-60
2023/07/04 03:01:16;;;;;;;13.30;6.65;;;;;;;20.31;nan;-4903.34;5035546;28;20233;-59
2023/07/04 03:03:42;;;;;;;13.75;7.07;;;;;;;20.20;nan;-4252.59;5035742;28;20211;-60
2023/07/04 03:06:07;;;;;;;12.50;7.07;;;;;;;20.40;nan;-2622.75;5035213;28;20203;-60
2023/07/04 03:08:34;;;;;;;9.70;6.38;;;;;;;20.60;nan;-338.72;5034993;28;20670;-60
2023/07/04 03:10:59;;;;;;;14.43;6.65;;;;;;;20.89;nan;6197.94;5035306;28;20183;-59
2023/07/04 03:13:25;;;;;;;14.10;6.57;;;;;;;21.46;nan;17357.06;5034809;28;20233;-61
2023/07/04 03:15:50;;;;;;;10.52;6.43;;;;;;;21.81;nan;23949.44;5035693;28;20544;-60
2023/07/04 03:18:16;;;;;;;10.68;5.75;;;;;;;22.14;nan;35515.59;5035391;28;20234;-60
2023/07/04 03:20:41;;;;;;;9.70;6.15;;;;;;;22.57;nan;44035.13;5035194;28;20278;-61
2023/07/04 03:23:07;;;;;;;17.40;6.75;;;;;;;22.64;nan;52267.03;5034110;28;20258;-60
2023/07/04 03:25:32;;;;;;;9.70;6.15;;;;;;;23.09;nan;55311.47;5035059;28;20201;-60
2023/07/04 03:27:57;;;;;;;13.25;6.57;;;;;;;23.91;nan;57396.03;5034423;28;20270;-61
2023/07/04 03:30:23;;;;;;;11.07;6.43;;;;;;;24.16;nan;58727.25;5035145;28;20600;-61
2023/07/04 03:32:48;;;;;;;13.57;6.00;;;;;;;25.03;nan;59868.19;5034945;28;20266;-61
2023/07/04 03:35:14;;;;;;;9.75;6.05;;;;;;;25.69;nan;60674.44;5034941;28;20176;-60
2023/07/04 03:37:39;;;;;;;13.15;6.60;;;;;;;26.05;nan;60894.66;5035076;28;20172;-60
2023/07/04 03:40:08;;;;;;;9.48;5.55;;;;;;;26.75;nan;61562.75;5034867;28;20297;-61
2023/07/04 03:42:39;;;;;;;9.35;5.75;;;;;;;27.34;nan;61806.09;5034746;28;20592;-60
2023/07/04 03:45:05;;;;;;;15.88;6.05;;;;;;;28.16;nan;62140.19;5034542;28;20202;-60
2023/07/04 03:47:31;;;;;;;10.32;6.15;;;;;;;28.63;nan;62200.94;5034730;28;20677;-60
2023/07/04 03:49:56;;;;;;;11.00;6.22;;;;;;;29.06;nan;62570.41;5034602;28;20211;-61
2023/07/04 03:52:22;;;;;;;14.18;6.00;;;;;;;29.58;nan;62858.53;5034891;28;20179;-60
2023/07/04 03:54:47;;;;;;;10.25;6.07;;;;;;;29.59;nan;62927.59;5034483;28;20638;-61
2023/07/04 03:57:13;;;;;;;9.35;5.80;;;;;;;29.97;nan;63049.78;5033493;28;20625;-61
2023/07/04 03:59:38;;;;;;;9.52;5.75;;;;;;;30.64;nan;62947.44;5034602;28;20175;-61
2023/07/04 04:02:04;;;;;;;9.77;5.50;;;;;;;31.17;nan;63107.53;5034115;28;20179;-61
2023/07/04 04:04:30;;;;;;;8.93;5.35;;;;;;;31.65;nan;63214.50;5034304;28;20175;-60
2023/07/04 04:06:58;;;;;;;9.07;5.25;;;;;;;32.11;nan;63311.94;5033556;28;20188;-61
2023/07/04 04:09:24;;;;;;;9.00;5.15;;;;;;;32.36;nan;63348.69;5033831;28;20171;-60
2023/07/04 04:11:50;;;;;;;8.55;5.68;;;;;;;32.65;nan;63440.41;5033800;28;20174;-60
2023/07/04 04:14:16;;;;;;;10.52;5.47;;;;;;;32.72;nan;63553.88;5034069;28;20167;-59
2023/07/04 04:16:41;;;;;;;9.45;5.20;;;;;;;32.73;nan;63703.34;5033853;28;20175;-60
2023/07/04 04:19:07;;;;;;;9.23;5.50;;;;;;;32.84;nan;63522.72;5032747;28;20372;-61
2023/07/04 04:21:32;;;;;;;9.60;5.72;;;;;;;32.96;nan;63533.34;5033861;28;20265;-62
2023/07/04 04:23:57;;;;;;;7.82;5.30;;;;;;;32.98;nan;63615.72;5034551;28;20213;-59
2023/07/04 04:26:23;;;;;;;9.70;5.35;;;;;;;32.91;nan;63554.66;5033547;28;20190;-60
2023/07/04 04:28:49;;;;;;;10.68;5.30;;;;;;;32.73;nan;63549.72;5033783;28;20638;-60
2023/07/04 04:31:15;;;;;;;9.35;5.63;;;;;;;32.74;nan;63458.19;5033736;28;20656;-60
2023/07/04 04:33:41;;;;;;;10.65;5.57;;;;;;;33.15;nan;63767.94;5032974;28;20178;-62
2023/07/04 04:36:07;;;;;;;9.15;5.53;;;;;;;33.19;nan;63435.41;5033680;28;20159;-60
2023/07/04 04:38:33;;;;;;;8.60;5.15;;;;;;;33.12;nan;63674.34;5033967;28;20614;-61
2023/07/04 04:41:05;;;;;;;11.13;6.40;;;;;;;33.19;nan;63642.72;5032237;28;20178;-60
2023/07/04 04:43:32;;;;;;;8.13;5.35;;;;;;;33.47;nan;63605.03;5034117;28;20228;-60
2023/07/04 04:45:58;;;;;;;8.13;4.80;;;;;;;33.22;nan;63611.72;5033619;28;20191;-61
2023/07/04 04:48:29;;;;;;;7.35;5.00;;;;;;;32.67;nan;63474.50;5033254;28;20178;-62
2023/07/04 04:50:57;;;;;;;9.48;5.88;;;;;;;32.56;nan;63530.63;5033495;28;20171;-60
2023/07/04 04:53:24;;;;;;;9.43;5.20;;;;;;;32.08;nan;63449.25;5033184;28;20175;-61
2023/07/04 04:55:50;;;;;;;9.15;5.47;;;;;;;32.14;nan;63384.75;5033676;28;20159;-61
2023/07/04 04:58:16;;;;;;;10.18;5.43;;;;;;;32.05;nan;63334.09;5032993;28;20698;-61
2023/07/04 05:00:44;;;;;;;9.52;5.95;;;;;;;32.24;nan;63432.75;5033139;28;20243;-60
2023/07/04 05:03:09;;;;;;;9.13;5.65;;;;;;;31.67;nan;63399.25;5031417;28;20257;-60
2023/07/04 05:05:35;;;;;;;9.77;6.03;;;;;;;31.79;nan;63362.84;5031507;28;20234;-60
2023/07/04 05:08:00;;;;;;;8.70;5.40;;;;;;;31.77;nan;63371.13;5031485;28;20244;-61
2023/07/04 05:10:25;;;;;;;9.55;5.70;;;;;;;31.44;nan;63262.81;5031952;28;20599;-60
2023/07/04 05:12:51;;;;;;;9.13;5.60;;;;;;;31.61;nan;63320.94;5032649;28;20652;-61
2023/07/04 05:15:16;;;;;;;9.05;5.70;;;;;;;31.85;nan;63385.66;5032499;28;20181;-62
2023/07/04 05:17:42;;;;;;;10.90;5.03;;;;;;;31.92;nan;63391.06;5032528;28;20533;-61
2023/07/04 05:20:09;;;;;;;7.70;5.22;;;;;;;31.70;nan;63236.72;5031866;28;20174;-61
2023/07/04 05:22:34;;;;;;;11.32;5.50;;;;;;;31.69;nan;63343.38;5032047;28;20174;-62
2023/07/04 05:24:59;;;;;;;8.00;5.28;;;;;;;31.64;nan;63391.06;5031820;28;20263;-61
2023/07/04 05:27:26;;;;;;;8.20;5.28;;;;;;;31.39;nan;63282.91;5032258;28;20178;-60
2023/07/04 05:29:51;;;;;;;8.68;5.35;;;;;;;31.54;nan;63387.41;5032326;28;20174;-62
2023/07/04 05:32:16;;;;;;;9.02;5.43;;;;;;;31.75;nan;63318.56;5032205;28;20204;-61
2023/07/04 05:34:46;;;;;;;9.52;5.03;;;;;;;31.61;nan;63480.13;5032087;28;20261;-62
2023/07/04 05:37:11;;;;;;;8.65;4.93;;;;;;;31.79;nan;63278.22;5031467;28;20183;-63
2023/07/04 05:39:37;;;;;;;7.10;4.93;;;;;;;32.37;nan;63445.16;5031833;28;20186;-61
2023/07/04 05:42:02;;;;;;;9.38;5.20;;;;;;;32.76;nan;63543.19;5031808;28;20179;-60
2023/07/04 05:44:28;;;;;;;8.23;5.15;;;;;;;;;;5032041;28;20249;-61
2023/07/04 05:46:54;;;;;;;7.65;5.30;;;;;;;32.83;nan;63545.41;5031755;28;20174;-61
2023/07/04 05:49:19;;;;;;;8.15;5.22;;;;;;;32.51;nan;63445.41;5031667;28;20167;-61
2023/07/04 05:51:45;;;;;;;10.90;5.45;;;;;;;31.62;nan;63279.78;5031610;28;20171;-60
2023/07/04 05:54:10;;;;;;;9.32;5.82;;;;;;;31.19;nan;63138.91;5031498;28;20570;-64
2023/07/04 05:56:35;;;;;;;9.23;5.15;;;;;;;30.60;nan;63122.31;5031184;28;20171;-60
2023/07/04 05:59:02;;;;;;;7.15;5.18;;;;;;;30.22;nan;63036.34;5031521;28;20193;-63
2023/07/04 06:01:34;;;;;;;10.65;5.45;;;;;;;29.90;nan;62984.31;5031611;28;20186;-61
2023/07/04 06:04:03;;;;;;;8.45;5.65;;;;;;;29.44;nan;62942.56;5030322;28;20312;-60
2023/07/04 06:06:42;;;;;;;8.57;5.60;;;;;;;29.36;nan;62870.16;5031068;28;20290;-61
2023/07/04 06:09:10;;;;;;;8.05;5.38;;;;;;;28.87;nan;62793.44;5031564;28;20174;-61
2023/07/04 06:11:39;;;;;;;10.70;6.50;;;;;;;29.15;nan;62867.69;5031776;28;20545;-63
2023/07/04 06:14:06;;;;;;;9.65;5.50;;;;;;;28.93;nan;62860.84;5031810;28;20642;-61
2023/07/04 06:16:33;;;;;;;9.23;5.88;;;;;;;28.97;nan;62842.31;5031843;28;20214;-62
2023/07/04 06:18:59;;;;;;;7.70;5.18;;;;;;;29.23;nan;62834.16;5031738;28;20174;-61
2023/07/04 06:21:26;;;;;;;9.90;6.00;;;;;;;29.13;nan;62975.97;5031777;28;20167;-62
2023/07/04 06:23:54;;;;;;;11.60;5.90;;;;;;;29.00;nan;62955.75;5031745;28;20174;-62
2023/07/04 06:26:21;;;;;;;9.68;5.60;;;;;;;29.17;nan;63153.78;5032105;28;20427;-60
2023/07/04 06:28:49;;;;;;;9.45;5.90;;;;;;;29.03;nan;62796.00;5031989;28;20581;-62
2023/07/04 06:31:16;;;;;;;10.52;6.32;;;;;;;29.15;nan;63054.59;5030840;28;20174;-60
2023/07/04 06:33:43;;;;;;;8.48;5.75;;;;;;;29.25;nan;62894.38;5031665;28;20213;-59
2023/07/04 06:36:14;;;;;;;9.85;6.15;;;;;;;29.24;nan;63059.13;5031968;28;20221;-61
2023/07/04 06:38:39;;;;;;;10.65;5.50;;;;;;;28.87;nan;62844.00;5031751;28;20185;-62
2023/07/04 06:41:08;;;;;;;9.02;5.50;;;;;;;28.92;nan;62836.00;5031612;28;20642;-61
2023/07/04 06:43:34;;;;;;;11.75;5.88;;;;;;;29.03;nan;63043.44;5031551;28;20175;-61
2023/07/04 06:46:00;;;;;;;7.90;5.13;;;;;;;29.29;nan;62975.91;5031260;28;20190;-61
2023/07/04 06:48:27;;;;;;;9.98;5.93;;;;;;;29.25;nan;62910.19;5032213;28;20232;-61
2023/07/04 06:51:00;;;;;;;9.82;5.65;;;;;;;24.54;nan;64447.56;5031333;28;20170;-62
2023/07/04 06:53:27;;;;;;;10.95;5.90;;;;;;;29.17;nan;63164.31;5031657;28;20190;-60
2023/07/04 06:55:53;;;;;;;14.73;5.68;;;;;;;29.27;nan;62907.22;5031072;28;20193;-61
2023/07/04 06:58:19;;;;;;;8.50;5.43;;;;;;;29.40;nan;62925.38;5031215;28;20715;-62
2023/07/04 07:00:44;;;;;;;9.23;6.05;;;;;;;29.30;nan;63040.31;5031379;28;20282;-62
2023/07/04 07:03:09;;;;;;;9.13;5.55;;;;;;;29.60;nan;62970.91;5031334;28;20301;-62
2023/07/04 07:05:39;;;;;;;8.88;5.22;;;;;;;26.97;nan;62861.91;5031071;28;20701;-63
2023/07/04 07:08:04;;;;;;;10.45;5.57;;;;;;;29.38;nan;63022.59;5031463;28;20175;-61
2023/07/04 07:10:31;;;;;;;8.63;5.30;;;;;;;29.36;nan;62930.75;5031022;28;20236;-62
2023/07/04 07:12:58;;;;;;;8.40;5.13;;;;;;;29.56;nan;62951.06;5030853;28;20178;-60
2023/07/04 07:15:24;;;;;;;7.97;5.15;;;;;;;29.46;nan;62963.28;5031075;28;20167;-60
2023/07/04 07:17:49;;;;;;;7.53;4.95;;;;;;;29.67;nan;62955.81;5031077;28;20206;-61
2023/07/04 07:20:15;;;;;;;7.72;5.28;;;;;;;30.01;nan;63036.50;5031333;28;20259;-61
2023/07/04 07:22:40;;;;;;;8.73;5.53;;;;;;;29.92;nan;62975.50;5031105;28;20167;-60
2023/07/04 07:25:06;;;;;;;9.60;5.25;;;;;;;29.69;nan;63055.03;5030834;28;20198;-62
2023/07/04 07:27:31;;;;;;;9.30;5.35;;;;;;;29.81;nan;62956.09;5030732;28;20242;-59
2023/07/04 07:29:57;;;;;;;9.27;5.45;;;;;;;30.14;nan;63106.84;5031006;28;20167;-62
2023/07/04 07:32:22;;;;;;;8.57;5.32;;;;;;;30.21;nan;63061.56;5031277;28;20171;-62
2023/07/04 07:34:47;;;;;;;8.30;5.38;;;;;;;30.22;nan;63083.81;5030884;28;20167;-61
2023/07/04 07:37:13;;;;;;;9.93;5.90;;;;;;;30.43;nan;63099.50;5031373;28;20193;-61
2023/07/04 07:39:38;;;;;;;8.48;5.18;;;;;;;30.30;nan;63161.59;5030896;28;20167;-63
2023/07/04 07:42:04;;;;;;;9.15;5.65;;;;;;;30.50;nan;63197.88;5030979;28;20664;-61
2023/07/04 07:44:29;;;;;;;8.75;5.55;;;;;;;30.32;nan;63090.06;5034584;28;20192;-61
2023/07/04 07:46:54;;;;;;;9.18;5.55;;;;;;;29.93;nan;63047.81;5034901;28;20191;-62
2023/07/04 07:49:20;;;;;;;10.23;6.20;;;;;;;30.03;nan;63193.81;5034589;28;20198;-64
2023/07/04 07:51:45;;;;;;;8.43;5.38;;;;;;;29.89;nan;62998.41;5034435;28;20171;-63
2023/07/04 07:54:13;;;;;;;8.50;5.72;;;;;;;29.82;nan;62938.78;5034468;28;20190;-62
2023/07/04 07:56:44;;;;;;;9.32;5.85;;;;;;;30.10;nan;63006.75;5034112;28;20254;-62
2023/07/04 07:59:10;;;;;;;9.00;5.57;;;;;;;30.25;nan;63076.72;5034798;28;20182;-62
2023/07/04 08:01:35;;;;;;;8.88;5.97;;;;;;;30.65;nan;63146.53;5034719;28;20172;-60
2023/07/04 08:04:02;;;;;;;9.90;5.63;;;;;;;30.42;nan;63085.75;5034582;28;20301;-63
2023/07/04 08:06:36;;;;;;;8.15;5.50;;;;;;;30.73;nan;63186.25;5034140;28;20191;-62
2023/07/04 08:09:04;;;;;;;7.50;5.15;;;;;;;27.23;nan;64587.88;5034286;28;20634;-62
2023/07/04 08:11:30;;;;;;;10.02;6.22;;;;;;;30.06;nan;63155.63;5033724;28;20216;-63
2023/07/04 08:13:56;;;;;;;10.43;5.63;;;;;;;30.39;nan;63053.25;5034132;28;20553;-61
2023/07/04 08:16:27;;;;;;;8.43;5.20;;;;;;;30.29;nan;63097.72;5034070;28;20729;-61
2023/07/04 08:18:52;;;;;;;9.55;5.60;;;;;;;29.58;nan;63089.81;5034130;28;20195;-61
2023/07/04 08:21:18;;;;;;;7.13;5.10;;;;;;;30.40;nan;63154.09;5033594;28;20207;-62
2023/07/04 08:23:43;;;;;;;8.13;5.45;;;;;;;30.50;nan;63079.13;5033749;28;20630;-62
2023/07/04 08:26:20;;;;;;;8.93;5.57;;;;;;;30.66;nan;63099.59;5034105;28;20638;-62
2023/07/04 08:28:46;;;;;;;10.10;5.65;;;;;;;30.56;nan;63125.03;5033967;28;20334;-60
2023/07/04 08:31:11;;;;;;;9.75;5.57;;;;;;;30.34;nan;63054.84;5032903;28;20270;-61
2023/07/04 08:33:37;;;;;;;8.82;5.63;;;;;;;30.60;nan;63243.72;5033464;28;20244;-62
2023/07/04 08:36:08;;;;;;;11.00;5.57;;;;;;;30.67;nan;63040.03;5033941;28;20175;-61
2023/07/04 08:38:34;;;;;;;8.80;5.50;;;;;;;30.37;nan;63103.72;5034295;28;20183;-59
2023/07/04 08:41:00;;;;;;;9.80;5.70;;;;;;;30.34;nan;63020.53;5033484;28;20526;-62
2023/07/04 08:43:36;;;;;;;12.95;6.38;;;;;;;30.36;nan;63036.63;5032400;28;20175;-66
2023/07/04 08:46:06;;;;;;;7.82;5.47;;;;;;;30.45;nan;63052.25;5033248;28;20244;-67
2023/07/04 08:48:33;;;;;;;8.90;5.43;;;;;;;30.49;nan;63170.31;5032804;28;20175;-66
2023/07/04 08:51:02;;;;;;;8.75;5.60;;;;;;;30.39;nan;63058.53;5032692;28;20199;-65
2023/07/04 08:53:28;;;;;;;9.32;5.80;;;;;;;30.58;nan;63159.59;5032639;28;20199;-66
2023/07/04 08:56:09;;;;;;;10.45;5.72;;;;;;;28.66;nan;62990.31;5032780;28;20555;-61
2023/07/04 08:58:58;;;;;;;9.23;5.57;;;;;;;30.97;nan;63174.31;5033010;28;20626;-63
2023/07/04 09:01:58;;;;;;;10.20;5.78;;;;;;;30.99;nan;63240.56;5032653;28;20175;-64
2023/07/04 09:04:51;;;;;;;11.20;5.88;;;;;;;30.90;nan;63121.34;5032744;28;20282;-69
2023/07/04 09:07:32;;;;;;;9.85;6.30;;;;;;;30.86;nan;63249.34;5032887;28;20171;-68
2023/07/04 09:10:13;;;;;;;9.35;6.05;;;;;;;30.52;nan;63139.47;5032822;28;20191;-63
2023/07/04 09:12:40;;;;;;;9.75;5.97;;;;;;;30.65;nan;63095.81;5032503;28;20182;-66
2023/07/04 09:15:29;;;;;;;9.75;5.38;;;;;;;30.71;nan;63232.03;5032593;28;20159;-65
2023/07/04 09:18:14;;;;;;;9.00;5.57;;;;;;;30.81;nan;63134.75;5032216;28;20177;-68
2023/07/04 09:21:18;;;;;;;7.53;5.28;;;;;;;30.82;nan;63220.38;5032481;28;20167;-64
2023/07/04 09:23:46;;;;;;;7.38;5.53;;;;;;;31.06;nan;63189.97;5032424;28;20167;-65
2023/07/04 09:26:16;;;;;;;8.95;5.63;;;;;;;31.24;nan;63300.53;5032248;28;20187;-70
2023/07/04 09:28:44;;;;;;;10.13;5.97;;;;;;;31.41;nan;63182.72;5032347;28;20207;-62
2023/07/04 09:31:17;;;;;;;8.85;5.45;;;;;;;31.55;nan;63298.69;5032253;28;20205;-67
2023/07/04 09:33:47;;;;;;;10.30;5.90;;;;;;;31.78;nan;63290.88;5032062;28;20194;-67
2023/07/04 09:36:13;;;;;;;7.93;5.43;;;;;;;31.99;nan;63407.69;5032371;28;20171;-65
2023/07/04 09:38:51;;;;;;;7.63;5.07;;;;;;;31.99;nan;63391.22;5031881;28;20175;-67
2023/07/04 09:41:17;;;;;;;7.22;5.00;;;;;;;31.89;nan;63343.25;5031917;28;20703;-66
2023/07/04 09:43:43;;;;;;;9.07;5.40;;;;;;;32.16;nan;63469.09;5031835;28;20183;-65
2023/07/04 09:46:17;;;;;;;7.00;5.05;;;;;;;32.09;nan;63347.22;5031629;28;20195;-61
2023/07/04 09:48:43;;;;;;;8.18;5.53;;;;;;;32.39;nan;63452.72;5031739;28;20171;-66
2023/07/04 09:51:21;;;;;;;7.80;5.32;;;;;;;32.16;nan;63349.44;5031883;28;20614;-67
2023/07/04 09:53:47;;;;;;;7.60;5.07;;;;;;;32.12;nan;63340.13;5031726;28;20544;-67
2023/07/04 09:56:25;;;;;;;8.13;5.25;;;;;;;32.26;nan;63355.69;5031486;28;20171;-65
2023/07/04 09:59:13;;;;;;;10.40;5.75;;;;;;;31.89;nan;63316.78;5031554;28;20179;-66
2023/07/04 10:01:41;;;;;;;9.77;5.78;;;;;;;31.68;nan;63366.00;5031607;28;20159;-65
2023/07/04 10:04:08;;;;;;;8.70;5.63;;;;;;;31.24;nan;63239.19;5031695;28;20313;-62
2023/07/04 10:06:36;;;;;;;9.40;6.18;;;;;;;31.42;nan;63234.09;5030723;28;20308;-64
2023/07/04 10:09:11;;;;;;;9.63;6.00;;;;;;;31.46;nan;63288.91;5031614;28;20185;-67
2023/07/04 10:11:37;;;;;;;10.10;5.93;;;;;;;31.22;nan;63203.09;5031564;28;20162;-65
2023/07/04 10:14:06;;;;;;;8.15;5.65;;;;;;;31.66;nan;63279.69;5031540;28;20583;-61
2023/07/04 10:16:32;;;;;;;8.30;5.65;;;;;;;32.08;nan;63351.34;5031498;28;20171;-62
2023/07/04 10:19:10;;;;;;;8.15;5.57;;;;;;;31.87;nan;63356.78;5031694;28;20170;-64
2023/07/04 10:21:48;;;;;;;8.10;5.38;;;;;;;31.65;nan;63323.47;5031638;28;20618;-64
2023/07/04 10:24:25;;;;;;;7.78;5.47;;;;;;;31.51;nan;63262.38;5031492;28;20173;-63
2023/07/04 10:26:54;;;;;;;8.88;5.53;;;;;;;31.78;nan;63234.78;5031737;28;20276;-62
2023/07/04 10:29:30;;;;;;;8.30;5.72;;;;;;;32.07;nan;63421.03;5031550;28;20253;-65
2023/07/04 10:32:01;;;;;;;9.68;5.32;;;;;;;31.67;nan;63327.88;5031575;28;20168;-66
2023/07/04 10:34:28;;;;;;;8.30;5.60;;;;;;;31.72;nan;63280.75;5031837;28;20167;-68
2023/07/04 10:36:54;;;;;;;8.98;5.10;;;;;;;32.14;nan;63434.47;5031238;28;20170;-63
2023/07/04 10:39:21;;;;;;;7.82;5.32;;;;;;;32.13;nan;63335.97;5030083;28;20253;-62
2023/07/04 10:41:49;;;;;;;10.23;5.03;;;;;;;32.31;nan;63497.00;5031548;28;20219;-67
2023/07/04 10:44:26;;;;;;;8.25;4.72;;;;;;;31.99;nan;63441.50;5031406;28;20182;-62
2023/07/04 10:47:02;;;;;;;7.85;5.45;;;;;;;31.60;nan;63348.84;5031019;28;20260;-61
2023/07/04 10:49:41;;;;;;;9.50;5.30;;;;;;;31.75;nan;63237.19;5031184;28;20178;-63
2023/07/04 10:52:12;;;;;;;9.23;5.80;;;;;;;32.31;nan;63428.19;5031014;28;20686;-66
2023/07/04 10:54:37;;;;;;;8.07;5.05;;;;;;;31.97;nan;63352.47;5031040;28;20561;-64
2023/07/04 10:57:11;;;;;;;8.20;5.30;;;;;;;31.69;nan;63404.19;5031279;28;20177;-63
2023/07/04 10:59:41;;;;;;;7.57;4.82;;;;;;;31.52;nan;63248.25;5030690;28;20209;-63
2023/07/04 11:02:23;;;;;;;7.07;4.97;;;;;;;31.74;nan;63241.31;5030854;28;20636;-63
2023/07/04 11:04:49;;;;;;;9.00;5.25;;;;;;;31.44;nan;63370.59;5030911;28;20170;-65
2023/07/04 11:07:23;;;;;;;8.55;5.15;;;;;;;31.66;nan;63240.03;5031046;28;20174;-66
2023/07/04 11:09:57;;;;;;;9.15;5.05;;;;;;;31.34;nan;63375.50;5031170;28;20232;-64
2023/07/04 11:12:27;;;;;;;8.32;5.53;;;;;;;31.64;nan;63374.63;5031031;28;20209;-62
2023/07/04 11:15:03;;;;;;;7.07;4.65;;;;;;;31.53;nan;63339.28;5030908;28;20623;-67
2023/07/04 11:17:33;;;;;;;8.98;5.18;;;;;;;31.75;nan;63300.66;5032858;28;20178;-64
2023/07/04 11:20:10;;;;;;;8.45;5.57;;;;;;;32.31;nan;63441.44;5034213;28;20178;-66
2023/07/04 11:22:57;;;;;;;6.00;4.50;;;;;;;32.50;nan;63488.69;5032756;28;20194;-66
2023/07/04 11:25:31;;;;;;;9.60;4.93;;;;;;;32.81;nan;63553.69;5026429;28;20212;-62
2023/07/04 11:28:11;;;;;;;8.23;5.20;;;;;;;32.87;nan;63531.47;5034838;28;20183;-62
2023/07/04 11:30:40;;;;;;;8.13;5.15;;;;;;;32.22;nan;63319.91;5034756;28;20167;-64
2023/07/04 11:33:07;;;;;;;7.57;4.57;;;;;;;32.39;nan;63445.38;5034417;28;20179;-66
2023/07/04 11:35:33;;;;;;;7.20;4.70;;;;;;;32.09;nan;63373.09;5034496;28;20654;-64
2023/07/04 11:38:08;;;;;;;6.78;4.65;;;;;;;32.17;nan;63586.66;5034533;28;20214;-65
2023/07/04 11:40:45;;;;;;;8.40;4.88;;;;;;;31.96;nan;63295.75;5034548;28;20262;-66
2023/07/04 11:43:40;;;;;;;6.75;4.57;;;;;;;32.37;nan;63450.44;5034426;28;20163;-64
2023/07/04 11:46:05;;;;;;;9.52;4.63;;;;;;;32.59;nan;63730.03;5033590;28;20222;-63
2023/07/04 11:48:33;;;;;;;8.65;5.38;;;;;;;32.23;nan;63339.00;5034295;28;20187;-66
2023/07/04 11:51:06;;;;;;;7.22;5.03;;;;;;;32.32;nan;63359.97;5033936;28;20175;-66
2023/07/04 11:53:45;;;;;;;5.30;3.65;;;;;;;32.25;nan;63450.38;5034205;28;20245;-64